Time;durP1;ratioP1;P1;durP2;ratioP2;P2;SDS_P1;SDS_P2;PMS_P1;PMS_P2;Temp;Humidity;BMP_temperature;BMP_pressure;BME280_temperature;BME280_humidity;BME280_pressure;Samples;Min_cycle;Max_cycle;Signal;HPM_P1;HPM_P2
2021/12/14 00:00:39;;;;;;;18.88;12.07;;;8.30;99.90;;;;;;5033133;28;20060;-81
2021/12/14 00:03:05;;;;;;;16.38;10.05;;;8.20;99.90;;;;;;5016834;28;20369;-79
2021/12/14 00:05:32;;;;;;;19.38;14.00;;;8.30;99.90;;;;;;4984190;28;20506;-79
2021/12/14 00:08:01;;;;;;;20.00;10.10;;;8.30;99.90;;;;;;5032034;28;20179;-79
2021/12/14 00:13:15;;;;;;;20.67;9.15;;;8.20;99.90;;;;;;5033714;28;20053;-79
2021/12/14 00:15:40;;;;;;;20.58;10.48;;;8.30;99.90;;;;;;5016348;28;20045;-82
2021/12/14 00:18:10;;;;;;;18.63;10.02;;;8.20;99.90;;;;;;5015281;28;20484;-79
2021/12/14 00:20:38;;;;;;;11.07;7.00;;;8.20;99.90;;;;;;5032489;28;20458;-82
2021/12/14 00:25:48;;;;;;;19.70;11.88;;;8.20;99.90;;;;;;5049104;28;20055;-82
2021/12/14 00:28:22;;;;;;;22.42;14.02;;;8.20;99.90;;;;;;5032537;28;20127;-79
2021/12/14 00:30:50;;;;;;;20.50;11.32;;;8.30;99.90;;;;;;5001126;28;20124;-79
2021/12/14 00:33:18;;;;;;;20.33;12.10;;;8.20;99.90;;;;;;5032100;28;20052;-79
2021/12/14 00:35:45;;;;;;;15.88;9.80;;;8.20;99.90;;;;;;5032276;28;20041;-79
2021/12/14 00:38:14;;;;;;;19.95;13.90;;;8.30;99.90;;;;;;5032232;28;20443;-82
2021/12/14 00:40:45;;;;;;;17.55;10.93;;;8.40;99.90;;;;;;5015879;28;20033;-79
2021/12/14 00:43:11;;;;;;;25.08;15.13;;;8.20;99.90;;;;;;5031793;28;20085;-82
2021/12/14 00:45:40;;;;;;;18.67;10.82;;;8.10;99.90;;;;;;5031964;28;20075;-82
2021/12/14 00:48:07;;;;;;;21.85;15.98;;;8.20;99.90;;;;;;5015037;28;20077;-79
2021/12/14 00:50:40;;;;;;;17.58;12.93;;;8.10;99.90;;;;;;5032249;28;20491;-82
2021/12/14 00:53:06;;;;;;;20.73;12.90;;;8.10;99.90;;;;;;5031623;28;20089;-82
2021/12/14 00:55:39;;;;;;;16.38;9.90;;;8.10;99.90;;;;;;5015483;28;20068;-79
2021/12/14 00:58:05;;;;;;;19.75;11.50;;;8.10;99.90;;;;;;5015545;28;20061;-79
2021/12/14 01:00:38;;;;;;;17.00;11.80;;;8.00;99.90;;;;;;5015413;28;20052;-82
2021/12/14 01:03:04;;;;;;;16.77;11.85;;;8.10;99.90;;;;;;5032127;28;20053;-82
2021/12/14 01:05:35;;;;;;;19.75;13.15;;;8.10;99.90;;;;;;5031802;28;20473;-82
2021/12/14 01:08:04;;;;;;;15.90;11.20;;;8.10;99.90;;;;;;5048306;28;20076;-82
2021/12/14 01:10:43;;;;;;;17.85;11.77;;;8.10;99.90;;;;;;5031992;28;20139;-82
2021/12/14 01:13:10;;;;;;;15.02;11.45;;;8.10;99.90;;;;;;5031556;28;20076;-79
2021/12/14 01:18:46;;;;;;;18.55;12.05;;;8.00;99.90;;;;;;5047808;28;20057;-82
2021/12/14 01:21:24;;;;;;;18.30;11.32;;;8.00;99.90;;;;;;5031518;28;20053;-79
2021/12/14 01:24:00;;;;;;;22.83;13.13;;;8.00;99.90;;;;;;5031747;28;20550;-79
2021/12/14 01:26:29;;;;;;;18.75;12.90;;;8.00;99.90;;;;;;5031219;28;20056;-82
2021/12/14 01:28:55;;;;;;;17.95;11.75;;;8.20;99.90;;;;;;5048046;28;20037;-82
2021/12/14 01:31:30;;;;;;;17.05;11.18;;;8.00;99.90;;;;;;5048202;28;20598;-79
2021/12/14 01:34:01;;;;;;;19.23;13.27;;;8.00;99.90;;;;;;5030938;28;20041;-81
2021/12/14 01:39:21;;;;;;;21.60;13.27;;;8.00;99.90;;;;;;5047038;28;20050;-82
2021/12/14 01:42:28;;;;;;;19.13;13.68;;;8.00;99.90;;;;;;5047635;28;20136;-79
2021/12/14 01:44:59;;;;;;;17.75;10.65;;;8.00;99.90;;;;;;5022612;28;20057;-79
2021/12/14 01:47:43;;;;;;;16.25;11.38;;;8.00;99.90;;;;;;5014329;28;20099;-82
2021/12/14 01:50:16;;;;;;;22.10;14.95;;;7.90;99.90;;;;;;5025205;28;20041;-82
2021/12/14 01:52:42;;;;;;;23.67;16.85;;;7.80;99.90;;;;;;5013841;28;20117;-79
2021/12/14 01:55:22;;;;;;;23.85;15.52;;;7.90;99.90;;;;;;5031065;28;20053;-82
2021/12/14 01:57:48;;;;;;;20.38;13.30;;;7.90;99.90;;;;;;5014735;28;20038;-79
2021/12/14 02:00:33;;;;;;;24.00;15.95;;;7.90;99.90;;;;;;5031016;28;20046;-79
2021/12/14 02:03:01;;;;;;;19.42;13.00;;;8.00;99.90;;;;;;5047640;28;20060;-79
2021/12/14 02:05:46;;;;;;;22.40;12.55;;;8.00;99.90;;;;;;5031654;28;20576;-79
2021/12/14 02:08:18;;;;;;;25.13;16.85;;;8.00;99.90;;;;;;5029105;28;20081;-79
2021/12/14 02:10:45;;;;;;;24.60;15.97;;;8.00;99.90;;;;;;5035076;28;20053;-82
2021/12/14 02:13:11;;;;;;;23.60;16.05;;;8.00;99.90;;;;;;5034610;28;20051;-82
2021/12/14 02:15:42;;;;;;;27.17;16.98;;;8.00;99.90;;;;;;5034910;28;20045;-79
2021/12/14 02:18:14;;;;;;;25.90;16.42;;;8.00;99.90;;;;;;5035266;28;20041;-82
2021/12/14 02:20:58;;;;;;;22.67;16.13;;;8.00;99.90;;;;;;5034887;28;20120;-81
2021/12/14 02:23:26;;;;;;;21.90;16.13;;;7.90;99.90;;;;;;5035129;28;20450;-82
2021/12/14 02:25:53;;;;;;;18.05;11.52;;;7.90;99.90;;;;;;5034726;28;20046;-79
2021/12/14 02:28:21;;;;;;;30.83;18.73;;;7.90;99.90;;;;;;5018123;28;20550;-79
2021/12/14 02:30:51;;;;;;;21.60;15.15;;;7.90;99.90;;;;;;5035196;28;20442;-79
2021/12/14 02:33:23;;;;;;;27.00;17.15;;;7.90;99.90;;;;;;5034825;28;20487;-81
2021/12/14 02:35:51;;;;;;;28.17;18.92;;;7.90;99.90;;;;;;5034584;28;20084;-79
2021/12/14 02:38:18;;;;;;;23.15;13.95;;;7.90;99.90;;;;;;5033855;28;20057;-80
2021/12/14 02:40:54;;;;;;;25.63;15.98;;;7.90;99.90;;;;;;5018319;28;20045;-79
2021/12/14 02:43:32;;;;;;;23.75;15.57;;;7.90;99.90;;;;;;5017930;28;20539;-79
2021/12/14 02:46:03;;;;;;;27.42;19.85;;;7.90;99.90;;;;;;5050925;28;20094;-81
2021/12/14 02:48:29;;;;;;;17.45;8.85;;;7.90;99.90;;;;;;5018136;28;20045;-79
2021/12/14 02:50:56;;;;;;;28.92;19.23;;;7.90;99.90;;;;;;5033797;28;20069;-82
2021/12/14 02:53:22;;;;;;;30.73;19.35;;;7.80;99.90;;;;;;5050507;28;20128;-82
2021/12/14 02:55:47;;;;;;;19.35;13.55;;;7.80;99.90;;;;;;5033743;28;20129;-82
2021/12/14 02:58:14;;;;;;;22.75;13.57;;;7.80;99.90;;;;;;5050960;28;20049;-82
2021/12/14 03:00:48;;;;;;;21.30;13.43;;;8.00;99.90;;;;;;5017596;28;20056;-82
2021/12/14 03:03:15;;;;;;;19.98;11.93;;;7.80;99.90;;;;;;5033961;28;20098;-82
2021/12/14 03:05:43;;;;;;;27.42;18.77;;;7.90;99.90;;;;;;5034220;28;20067;-80
2021/12/14 03:08:21;;;;;;;29.17;18.30;;;7.90;99.90;;;;;;5033426;28;20045;-79
2021/12/14 03:10:57;;;;;;;19.08;12.30;;;7.90;99.90;;;;;;5050729;28;20148;-79
2021/12/14 03:13:29;;;;;;;26.52;13.40;;;7.90;99.90;;;;;;5033582;28;20072;-81
2021/12/14 03:15:58;;;;;;;18.42;11.32;;;7.90;99.90;;;;;;5033295;28;20063;-79
2021/12/14 03:18:34;;;;;;;29.30;20.85;;;7.80;99.90;;;;;;5050292;28;20045;-81
2021/12/14 03:21:14;;;;;;;30.67;21.17;;;7.90;99.90;;;;;;5017839;28;20404;-79
2021/12/14 03:23:50;;;;;;;21.45;14.30;;;7.90;99.90;;;;;;5033520;28;20037;-79
2021/12/14 03:26:19;;;;;;;25.52;17.67;;;7.90;99.90;;;;;;5033223;28;20042;-79
2021/12/14 03:28:48;;;;;;;28.90;19.05;;;7.90;99.90;;;;;;5049733;28;20101;-82
2021/12/14 03:31:14;;;;;;;28.50;20.30;;;7.90;99.90;;;;;;5034098;28;20490;-79
2021/12/14 03:33:47;;;;;;;29.63;17.60;;;7.90;99.90;;;;;;5033311;28;20068;-82
2021/12/14 03:36:20;;;;;;;32.58;21.15;;;7.80;99.90;;;;;;5050103;28;20621;-81
2021/12/14 03:38:50;;;;;;;33.10;21.65;;;7.90;99.90;;;;;;5032855;28;20488;-82
2021/12/14 03:41:38;;;;;;;24.67;12.32;;;7.90;99.90;;;;;;5033340;28;20499;-79
2021/12/14 03:44:12;;;;;;;23.65;14.88;;;7.90;99.90;;;;;;5016960;28;20084;-79
2021/12/14 03:46:45;;;;;;;27.33;18.20;;;7.90;99.90;;;;;;5033315;28;20117;-79
2021/12/14 03:49:11;;;;;;;27.70;18.00;;;7.90;99.90;;;;;;5016886;28;20042;-79
2021/12/14 03:51:38;;;;;;;29.35;19.75;;;8.10;99.90;;;;;;5033068;28;20057;-79
2021/12/14 03:54:04;;;;;;;27.33;16.50;;;7.90;99.90;;;;;;5033290;28;20484;-79
2021/12/14 03:56:30;;;;;;;32.35;22.80;;;7.90;99.90;;;;;;5049734;28;20056;-79
2021/12/14 03:58:57;;;;;;;26.95;15.73;;;7.90;99.90;;;;;;5032557;28;20045;-82
2021/12/14 04:01:31;;;;;;;24.15;16.27;;;8.00;99.90;;;;;;5000619;28;20046;-82
2021/12/14 04:04:09;;;;;;;23.75;16.20;;;7.90;99.90;;;;;;5032800;28;20042;-79
2021/12/14 04:06:35;;;;;;;33.22;22.55;;;8.00;99.90;;;;;;5033339;28;20376;-82
2021/12/14 04:09:02;;;;;;;31.95;21.48;;;8.10;99.90;;;;;;5032798;28;20416;-82
2021/12/14 04:11:28;;;;;;;22.67;15.15;;;8.00;99.90;;;;;;5049819;28;20064;-79
2021/12/14 04:13:54;;;;;;;24.73;15.82;;;8.00;99.90;;;;;;5049285;28;20477;-82
2021/12/14 04:16:22;;;;;;;17.95;11.05;;;8.10;99.90;;;;;;5032858;28;20037;-79
2021/12/14 04:18:48;;;;;;;32.47;19.23;;;8.10;99.90;;;;;;5049350;28;20088;-79
2021/12/14 04:21:15;;;;;;;25.65;16.02;;;8.10;99.90;;;;;;5016121;28;20049;-81
2021/12/14 04:23:44;;;;;;;37.00;22.77;;;7.90;99.90;;;;;;5031967;28;20060;-79
2021/12/14 04:26:12;;;;;;;22.60;14.43;;;7.70;99.90;;;;;;5033289;28;20391;-82
2021/12/14 04:28:42;;;;;;;26.58;15.93;;;7.70;99.90;;;;;;5031829;28;20061;-81
2021/12/14 04:31:09;;;;;;;24.92;14.38;;;7.60;99.90;;;;;;5032573;28;20072;-81
2021/12/14 04:33:37;;;;;;;29.60;19.17;;;7.60;99.90;;;;;;5032400;28;20056;-82
2021/12/14 04:36:07;;;;;;;27.92;16.27;;;7.60;99.90;;;;;;5032433;28;20045;-79
2021/12/14 04:38:41;;;;;;;29.75;18.42;;;7.60;99.90;;;;;;5032238;28;20450;-81
2021/12/14 04:52:22;;;;;;;32.67;20.77;;;7.60;99.90;;;;;;5048227;28;20107;-79
2021/12/14 04:54:53;;;;;;;27.90;16.63;;;7.50;99.90;;;;;;5048307;28;20120;-82
2021/12/14 04:57:29;;;;;;;30.00;19.45;;;7.50;99.90;;;;;;5032551;28;20399;-82
2021/12/14 04:59:59;;;;;;;27.58;16.30;;;7.50;99.90;;;;;;5048249;28;20037;-79
2021/12/14 05:02:32;;;;;;;39.53;26.08;;;7.70;99.90;;;;;;5032150;28;20492;-79
2021/12/14 05:04:59;;;;;;;33.78;20.17;;;7.50;99.90;;;;;;5032027;28;20084;-79
2021/12/14 05:09:53;;;;;;;30.40;18.60;;;7.60;99.90;;;;;;5047994;28;20100;-79
2021/12/14 05:12:25;;;;;;;30.55;16.85;;;7.60;99.90;;;;;;5048432;28;20080;-81
2021/12/14 05:14:51;;;;;;;32.47;20.95;;;7.60;99.90;;;;;;5048035;28;20040;-79
2021/12/14 05:17:21;;;;;;;31.17;16.02;;;7.50;99.90;;;;;;5031484;28;20095;-82
2021/12/14 05:19:49;;;;;;;24.27;14.63;;;7.50;99.90;;;;;;5031316;28;20053;-82
2021/12/14 05:22:17;;;;;;;27.02;14.38;;;7.60;99.90;;;;;;4999316;28;20526;-80
2021/12/14 05:24:48;;;;;;;33.10;20.98;;;7.50;99.90;;;;;;5031570;28;20049;-81
2021/12/14 05:27:27;;;;;;;23.13;12.52;;;7.50;99.90;;;;;;5030780;28;20491;-82
2021/12/14 05:30:00;;;;;;;45.00;25.75;;;7.40;99.90;;;;;;5048201;28;20060;-82
2021/12/14 05:32:27;;;;;;;;;;;7.50;99.90;;;;;;5015797;28;20053;-81
2021/12/14 05:34:52;;;;;;;38.30;23.45;;;7.60;99.90;;;;;;5015209;28;20003;-82
2021/12/14 05:37:22;;;;;;;38.45;22.90;;;7.50;99.90;;;;;;5048289;28;20443;-82
2021/12/14 05:39:59;;;;;;;37.08;15.80;;;7.50;99.90;;;;;;5014562;28;20111;-82
2021/12/14 05:45:13;;;;;;;43.88;22.92;;;7.50;99.90;;;;;;5033978;28;20056;-79
2021/12/14 05:47:48;;;;;;;36.70;21.15;;;7.50;99.90;;;;;;5047728;28;20049;-82
2021/12/14 05:50:17;;;;;;;41.58;22.85;;;7.50;99.90;;;;;;5015208;28;20491;-82
2021/12/14 05:52:44;;;;;;;42.80;26.52;;;7.50;99.90;;;;;;5031112;28;20049;-79
2021/12/14 05:55:11;;;;;;;23.17;14.38;;;7.50;99.90;;;;;;5031272;28;20076;-82
2021/12/14 05:57:38;;;;;;;35.63;21.80;;;7.60;99.90;;;;;;5031189;28;20069;-82
2021/12/14 06:00:07;;;;;;;33.40;18.98;;;7.80;99.90;;;;;;5030611;28;20049;-79
2021/12/14 06:02:37;;;;;;;37.63;21.25;;;7.60;99.90;;;;;;5031233;28;20041;-79
2021/12/14 06:05:03;;;;;;;34.28;18.58;;;7.60;99.90;;;;;;5047544;28;20053;-79
2021/12/14 06:07:29;;;;;;;30.77;18.85;;;7.60;99.90;;;;;;5031001;28;20037;-82
2021/12/14 06:09:55;;;;;;;35.83;20.60;;;7.60;99.90;;;;;;5030527;28;20034;-82
2021/12/14 06:12:29;;;;;;;28.38;18.00;;;7.70;99.90;;;;;;5047588;28;20045;-79
2021/12/14 06:14:58;;;;;;;27.95;15.23;;;7.70;99.90;;;;;;5030738;28;20048;-79
2021/12/14 06:17:30;;;;;;;44.50;26.05;;;7.70;99.90;;;;;;5030797;28;20125;-79
2021/12/14 06:19:59;;;;;;;34.75;20.38;;;7.70;99.90;;;;;;5047994;28;20052;-81
2021/12/14 06:22:25;;;;;;;33.70;20.13;;;7.70;99.90;;;;;;5031022;28;20415;-79
2021/12/14 06:24:59;;;;;;;36.45;20.38;;;7.70;99.90;;;;;;5031029;28;20046;-79
2021/12/14 06:27:27;;;;;;;35.40;22.42;;;7.70;99.90;;;;;;5047558;28;20140;-80
2021/12/14 06:30:07;;;;;;;33.05;19.42;;;7.70;99.90;;;;;;5025863;28;20073;-82
2021/12/14 06:32:41;;;;;;;25.13;15.23;;;7.70;99.90;;;;;;5030908;28;20042;-79
2021/12/14 06:35:20;;;;;;;23.35;13.73;;;7.70;99.90;;;;;;5023633;28;20084;-82
2021/12/14 06:40:43;;;;;;;45.20;25.55;;;7.70;99.90;;;;;;5029811;28;20107;-82
2021/12/14 06:43:16;;;;;;;43.85;25.08;;;7.70;99.90;;;;;;5047037;28;20037;-82
2021/12/14 06:45:45;;;;;;;48.17;28.17;;;7.80;99.90;;;;;;5030793;28;20045;-82
2021/12/14 06:48:16;;;;;;;41.50;24.42;;;7.70;99.90;;;;;;5030385;28;20056;-82
2021/12/14 06:50:55;;;;;;;28.48;16.48;;;7.70;99.90;;;;;;5014084;28;20041;-80
2021/12/14 06:53:22;;;;;;;37.25;22.55;;;7.80;99.90;;;;;;5007727;28;20262;-79
2021/12/14 06:55:53;;;;;;;33.17;19.92;;;7.70;99.90;;;;;;5033941;28;20134;-82
2021/12/14 06:58:47;;;;;;;55.17;30.27;;;7.60;99.90;;;;;;5034128;28;20060;-82
2021/12/14 07:01:44;;;;;;;33.63;16.92;;;7.60;99.90;;;;;;5017410;28;20037;-79
2021/12/14 07:04:14;;;;;;;33.58;19.23;;;7.60;99.90;;;;;;5000026;28;20082;-79
2021/12/14 07:06:44;;;;;;;41.67;22.38;;;7.60;99.90;;;;;;5034123;28;20438;-81
2021/12/14 07:09:18;;;;;;;39.78;23.63;;;7.70;99.90;;;;;;5023581;28;20044;-82
2021/12/14 07:11:48;;;;;;;24.02;13.40;;;7.70;99.90;;;;;;5049877;28;20057;-79
2021/12/14 07:14:27;;;;;;;35.72;20.27;;;7.60;99.90;;;;;;5034152;28;20392;-80
2021/12/14 07:16:55;;;;;;;30.88;19.08;;;7.60;99.90;;;;;;5037022;28;20333;-79
2021/12/14 07:19:55;;;;;;;41.25;22.13;;;7.60;99.90;;;;;;5017198;28;20046;-80
2021/12/14 07:22:32;;;;;;;50.70;28.10;;;7.60;99.90;;;;;;5033635;28;20056;-80
2021/12/14 07:25:03;;;;;;;42.05;24.52;;;7.60;99.90;;;;;;5050048;28;20491;-83
2021/12/14 07:27:35;;;;;;;64.72;31.48;;;7.60;99.90;;;;;;5033834;28;20061;-80
2021/12/14 07:30:18;;;;;;;73.93;37.23;;;7.60;99.90;;;;;;5017303;28;20515;-80
2021/12/14 07:32:48;;;;;;;67.07;36.60;;;7.60;99.90;;;;;;5049946;28;20057;-79
2021/12/14 07:35:24;;;;;;;68.25;37.38;;;7.60;99.90;;;;;;5033578;28;20110;-82
2021/12/14 07:37:51;;;;;;;48.60;24.75;;;7.60;99.90;;;;;;5017111;28;20037;-80
2021/12/14 07:40:17;;;;;;;41.72;21.67;;;7.60;99.90;;;;;;5016791;28;20046;-79
2021/12/14 07:42:44;;;;;;;47.15;24.38;;;7.60;99.90;;;;;;5033662;28;20496;-79
2021/12/14 07:45:10;;;;;;;37.28;18.27;;;7.60;99.90;;;;;;5032916;28;20042;-83
2021/12/14 07:47:36;;;;;;;44.47;23.25;;;7.70;99.90;;;;;;5017124;28;20534;-79
2021/12/14 07:50:03;;;;;;;47.42;25.17;;;7.70;99.90;;;;;;5016702;28;20556;-82
2021/12/14 07:52:37;;;;;;;43.97;21.55;;;7.70;99.90;;;;;;5033493;28;20041;-83
2021/12/14 07:55:18;;;;;;;37.55;19.38;;;7.70;99.90;;;;;;5049410;28;20507;-79
2021/12/14 07:57:46;;;;;;;54.78;26.60;;;7.70;99.90;;;;;;5016784;28;20546;-82
2021/12/14 08:00:23;;;;;;;41.78;20.75;;;7.70;99.90;;;;;;5032931;28;20392;-82
2021/12/14 08:02:52;;;;;;;56.10;30.02;;;7.70;99.90;;;;;;5033302;28;20488;-79
2021/12/14 08:05:26;;;;;;;48.22;26.85;;;7.70;99.90;;;;;;5032768;28;20496;-78
2021/12/14 08:07:57;;;;;;;62.47;29.80;;;7.70;99.90;;;;;;5033240;28;20046;-82
2021/12/14 08:10:33;;;;;;;68.60;35.10;;;7.80;99.90;;;;;;5016991;28;20053;-79
2021/12/14 08:13:18;;;;;;;59.20;30.80;;;7.70;99.90;;;;;;5033312;28;20053;-82
2021/12/14 08:15:46;;;;;;;73.60;35.50;;;7.70;99.90;;;;;;5016872;28;20137;-82
2021/12/14 08:18:16;;;;;;;80.90;38.97;;;7.80;99.90;;;;;;5033168;28;20061;-82
2021/12/14 08:20:59;;;;;;;47.30;26.27;;;7.70;99.90;;;;;;5033299;28;20081;-82
2021/12/14 08:23:26;;;;;;;55.28;27.45;;;7.80;99.90;;;;;;5033162;28;20048;-79
2021/12/14 08:25:59;;;;;;;66.38;31.77;;;7.80;99.90;;;;;;5016706;28;20045;-82
2021/12/14 08:28:26;;;;;;;60.35;31.05;;;7.80;99.90;;;;;;5032807;28;20049;-79
2021/12/14 08:30:57;;;;;;;71.07;34.47;;;7.70;99.90;;;;;;5032932;28;20064;-79
2021/12/14 08:33:25;;;;;;;72.93;35.00;;;7.80;99.90;;;;;;5032766;28;20132;-82
2021/12/14 08:35:52;;;;;;;74.32;33.53;;;7.80;99.90;;;;;;5016396;28;20041;-79
2021/12/14 08:38:19;;;;;;;63.60;29.77;;;7.80;99.90;;;;;;5032794;28;20088;-79
2021/12/14 08:40:50;;;;;;;66.40;34.40;;;7.80;99.90;;;;;;5016410;28;20042;-81
2021/12/14 08:43:33;;;;;;;57.17;29.67;;;7.80;99.90;;;;;;5016638;28;20420;-79
2021/12/14 08:46:09;;;;;;;52.33;26.58;;;7.80;99.90;;;;;;5016370;28;20094;-81
2021/12/14 08:48:45;;;;;;;68.57;31.67;;;7.80;99.90;;;;;;5032616;28;20484;-79
2021/12/14 08:51:22;;;;;;;70.45;33.35;;;7.90;99.90;;;;;;5032915;28;20460;-82
2021/12/14 08:53:57;;;;;;;56.60;28.95;;;7.80;99.90;;;;;;5032848;28;20606;-79
2021/12/14 08:56:25;;;;;;;77.32;37.58;;;8.00;99.90;;;;;;5016395;28;20428;-82
2021/12/14 08:58:51;;;;;;;61.35;31.95;;;7.90;99.90;;;;;;5032340;28;20043;-82
2021/12/14 09:01:20;;;;;;;73.10;36.30;;;7.90;99.90;;;;;;5032776;28;20566;-81
2021/12/14 09:04:07;;;;;;;73.28;34.78;;;7.80;99.90;;;;;;5016161;28;20507;-82
2021/12/14 09:06:36;;;;;;;66.07;30.85;;;8.00;99.90;;;;;;5016082;28;20538;-79
2021/12/14 09:09:06;;;;;;;77.03;36.75;;;7.90;99.90;;;;;;5032313;28;20041;-81
2021/12/14 09:11:35;;;;;;;66.40;33.75;;;7.90;99.90;;;;;;5032803;28;20505;-79
2021/12/14 09:14:09;;;;;;;64.13;33.15;;;7.90;99.90;;;;;;5016076;28;20475;-80
2021/12/14 09:16:35;;;;;;;90.47;41.47;;;7.90;99.90;;;;;;5015673;28;20044;-79
2021/12/14 09:19:24;;;;;;;54.90;28.38;;;7.90;99.90;;;;;;5032209;28;20049;-82
2021/12/14 09:21:54;;;;;;;69.78;32.85;;;7.90;99.90;;;;;;5015651;28;20050;-82
2021/12/14 09:24:22;;;;;;;90.85;42.20;;;7.90;99.90;;;;;;5032181;28;20045;-79
2021/12/14 09:26:53;;;;;;;66.20;31.70;;;8.00;99.90;;;;;;5031681;28;20106;-82
2021/12/14 09:29:21;;;;;;;45.15;24.67;;;8.00;99.90;;;;;;5032115;28;20053;-82
2021/12/14 09:31:49;;;;;;;65.03;30.15;;;8.00;99.90;;;;;;5015356;28;20045;-79
2021/12/14 09:34:19;;;;;;;47.95;24.65;;;8.10;99.90;;;;;;5031935;28;20053;-82
2021/12/14 09:36:48;;;;;;;57.72;30.45;;;8.10;99.90;;;;;;5031813;28;20083;-79
2021/12/14 09:39:19;;;;;;;69.82;33.90;;;8.10;99.90;;;;;;5015396;28;20045;-79
2021/12/14 09:41:53;;;;;;;73.43;36.92;;;8.10;99.90;;;;;;5031780;28;20124;-82
2021/12/14 09:44:22;;;;;;;60.85;28.85;;;8.10;99.90;;;;;;5031945;28;20120;-82
2021/12/14 09:46:49;;;;;;;59.50;32.13;;;8.10;99.90;;;;;;5031683;28;20049;-82
2021/12/14 09:49:16;;;;;;;79.78;36.85;;;8.10;99.90;;;;;;5015299;28;20068;-81
2021/12/14 09:51:47;;;;;;;83.35;36.38;;;8.10;99.90;;;;;;5031889;28;20037;-82
2021/12/14 09:54:16;;;;;;;33.00;18.08;;;8.10;99.90;;;;;;5015624;28;20093;-82
2021/12/14 09:56:53;;;;;;;59.28;29.40;;;8.10;99.90;;;;;;5015482;28;20049;-79
2021/12/14 09:59:20;;;;;;;56.42;29.95;;;8.10;99.90;;;;;;5015248;28;20041;-82
2021/12/14 10:01:56;;;;;;;46.75;23.73;;;8.10;99.90;;;;;;5015048;28;20080;-82
2021/12/14 10:04:49;;;;;;;58.58;29.33;;;8.20;99.90;;;;;;5015261;28;20041;-81
2021/12/14 10:07:16;;;;;;;76.93;35.65;;;8.10;99.90;;;;;;5029403;28;20052;-78
2021/12/14 10:09:46;;;;;;;53.17;27.52;;;8.10;99.90;;;;;;5031541;28;20049;-78
2021/12/14 10:14:53;;;;;;;60.50;29.92;;;8.10;99.90;;;;;;5031741;28;20118;-79
2021/12/14 10:17:22;;;;;;;58.63;28.60;;;8.20;99.90;;;;;;5031696;28;20381;-78
2021/12/14 10:19:49;;;;;;;49.28;25.10;;;8.10;99.90;;;;;;5031548;28;20038;-79
2021/12/14 10:22:23;;;;;;;70.57;31.90;;;8.10;99.90;;;;;;5031438;28;20119;-81
2021/12/14 10:24:52;;;;;;;66.68;31.42;;;8.10;99.90;;;;;;5014898;28;20052;-82
2021/12/14 10:27:21;;;;;;;39.75;18.80;;;8.10;99.90;;;;;;5015795;28;20057;-78
2021/12/14 10:29:47;;;;;;;45.00;21.13;;;8.10;99.90;;;;;;5019230;28;20408;-79
2021/12/14 10:32:22;;;;;;;42.30;21.60;;;8.10;99.90;;;;;;5002851;28;20569;-79
2021/12/14 10:34:56;;;;;;;67.15;32.13;;;8.10;99.90;;;;;;5035548;28;20061;-79
2021/12/14 10:37:45;;;;;;;36.03;19.27;;;8.10;99.90;;;;;;5035170;28;20085;-82
2021/12/14 10:43:16;;;;;;;65.97;29.73;;;8.10;99.90;;;;;;5034967;28;20050;-79
2021/12/14 10:45:48;;;;;;;64.63;30.60;;;8.10;99.90;;;;;;5035206;28;20046;-78
2021/12/14 10:48:14;;;;;;;69.60;30.50;;;8.20;99.90;;;;;;5034806;28;20092;-78
2021/12/14 10:50:42;;;;;;;43.70;20.55;;;8.10;99.90;;;;;;5018508;28;20049;-82
2021/12/14 10:53:11;;;;;;;46.35;23.02;;;8.20;99.90;;;;;;5034752;28;20050;-82
2021/12/14 10:55:42;;;;;;;34.75;18.60;;;8.20;99.90;;;;;;5034731;28;20049;-78
2021/12/14 10:58:09;;;;;;;19.58;11.65;;;8.20;99.90;;;;;;5034624;28;20128;-78
2021/12/14 11:00:49;;;;;;;39.90;19.38;;;8.20;99.90;;;;;;5018368;28;20085;-78
2021/12/14 11:03:20;;;;;;;55.08;27.20;;;8.30;99.90;;;;;;5034643;28;20049;-82
2021/12/14 11:05:52;;;;;;;67.30;30.80;;;8.20;99.90;;;;;;5034768;28;20195;-82
2021/12/14 11:11:01;;;;;;;38.95;18.83;;;8.40;99.90;;;;;;5034822;28;20492;-78
2021/12/14 11:13:40;;;;;;;37.78;19.08;;;8.30;99.90;;;;;;5034303;28;20056;-82
2021/12/14 11:16:14;;;;;;;61.67;27.98;;;8.40;99.90;;;;;;5018006;28;20042;-78
2021/12/14 11:18:44;;;;;;;44.95;23.50;;;8.40;99.90;;;;;;5034327;28;20056;-78
2021/12/14 11:21:13;;;;;;;62.67;29.48;;;8.50;99.90;;;;;;5034705;28;20483;-78
2021/12/14 11:23:48;;;;;;;42.78;22.50;;;8.40;99.90;;;;;;5034521;28;20499;-78
2021/12/14 11:26:24;;;;;;;45.63;22.88;;;8.50;99.90;;;;;;5034238;28;20119;-82
2021/12/14 11:28:54;;;;;;;58.78;26.60;;;8.50;99.90;;;;;;5034051;28;20534;-78
2021/12/14 11:31:30;;;;;;;40.80;19.50;;;8.40;99.90;;;;;;5034056;28;20050;-81
2021/12/14 11:33:59;;;;;;;39.35;19.88;;;8.40;99.90;;;;;;5017665;28;20073;-82
2021/12/14 11:36:34;;;;;;;46.47;22.00;;;8.50;99.90;;;;;;5034481;28;20549;-82
2021/12/14 11:39:27;;;;;;;45.17;21.67;;;8.40;99.90;;;;;;5032566;28;20103;-81
2021/12/14 11:42:02;;;;;;;45.90;22.30;;;8.50;99.90;;;;;;5017426;28;20052;-81
2021/12/14 11:44:47;;;;;;;36.13;17.45;;;8.50;99.90;;;;;;5033914;28;20060;-82
2021/12/14 11:48:01;;;;;;;41.78;20.00;;;8.50;99.90;;;;;;5017352;28;20132;-82
2021/12/14 11:50:37;;;;;;;39.65;21.58;;;8.50;99.90;;;;;;5031156;28;20419;-79
2021/12/14 11:53:06;;;;;;;30.88;14.93;;;8.50;99.90;;;;;;5032904;28;20091;-81
2021/12/14 11:55:32;;;;;;;30.63;13.85;;;8.50;99.90;;;;;;5033681;28;20045;-81
2021/12/14 11:58:33;;;;;;;27.67;15.50;;;8.60;99.90;;;;;;5017165;28;20132;-81
2021/12/14 12:01:36;;;;;;;33.42;16.00;;;8.50;99.90;;;;;;5033914;28;20061;-79
2021/12/14 12:04:09;;;;;;;25.80;12.13;;;8.50;99.90;;;;;;5033848;28;20152;-79
2021/12/14 12:09:32;;;;;;;40.42;19.60;;;8.50;99.90;;;;;;5033599;28;20412;-82
2021/12/14 12:12:07;;;;;;;48.85;22.42;;;8.50;99.90;;;;;;5033301;28;20041;-81
2021/12/14 12:14:54;;;;;;;26.25;14.07;;;8.50;99.90;;;;;;5033375;28;20136;-78
2021/12/14 12:17:37;;;;;;;36.47;17.58;;;8.50;99.90;;;;;;5033253;28;20050;-78
2021/12/14 12:20:09;;;;;;;23.23;11.52;;;8.50;99.90;;;;;;5033366;28;20075;-79
2021/12/14 12:22:41;;;;;;;29.95;14.55;;;8.50;99.90;;;;;;5016920;28;20504;-81
2021/12/14 12:25:20;;;;;;;18.80;10.65;;;8.50;99.90;;;;;;5033274;28;20068;-82
2021/12/14 12:27:56;;;;;;;25.77;13.73;;;8.50;99.90;;;;;;5015279;28;20102;-82
2021/12/14 12:30:35;;;;;;;29.35;15.43;;;8.60;99.90;;;;;;5015617;28;20045;-82
2021/12/14 12:33:30;;;;;;;23.52;12.75;;;8.60;99.90;;;;;;5031762;28;20076;-78
2021/12/14 12:35:59;;;;;;;26.88;14.18;;;8.60;99.90;;;;;;5031229;28;20283;-82
2021/12/14 12:38:54;;;;;;;20.33;12.27;;;8.50;99.90;;;;;;5015797;28;20046;-81
2021/12/14 12:41:29;;;;;;;39.35;18.23;;;8.60;99.90;;;;;;5015176;28;20041;-82
2021/12/14 12:44:24;;;;;;;21.05;9.98;;;8.60;99.90;;;;;;5045750;28;20504;-78
2021/12/14 12:46:58;;;;;;;16.52;8.43;;;8.60;99.90;;;;;;5031503;28;20496;-78
2021/12/14 12:49:35;;;;;;;23.35;12.40;;;8.60;99.90;;;;;;5048841;28;20041;-80
2021/12/14 12:52:16;;;;;;;23.98;13.07;;;8.60;99.90;;;;;;5028385;28;20045;-82
2021/12/14 12:55:11;;;;;;;27.80;13.98;;;8.60;99.90;;;;;;5013157;28;20479;-78
2021/12/14 12:57:53;;;;;;;25.10;13.80;;;8.60;99.90;;;;;;5032852;28;20060;-82
2021/12/14 13:00:23;;;;;;;18.20;9.07;;;8.70;99.90;;;;;;5049201;28;20057;-78
2021/12/14 13:02:58;;;;;;;32.90;17.40;;;8.70;99.90;;;;;;5032422;28;20079;-82
2021/12/14 13:05:47;;;;;;;28.88;15.27;;;8.60;99.90;;;;;;5032404;28;20048;-78
2021/12/14 13:08:22;;;;;;;27.55;14.13;;;8.70;99.90;;;;;;5048978;28;20049;-78
2021/12/14 13:11:08;;;;;;;28.67;14.55;;;8.70;99.90;;;;;;5048968;28;20042;-79
2021/12/14 13:14:02;;;;;;;27.48;14.50;;;8.70;99.90;;;;;;5048821;28;20049;-82
2021/12/14 13:16:32;;;;;;;35.75;16.75;;;8.70;99.90;;;;;;5032274;28;20061;-81
2021/12/14 13:19:11;;;;;;;35.72;16.65;;;8.70;99.90;;;;;;5048656;28;20042;-79
2021/12/14 13:21:49;;;;;;;34.30;16.90;;;8.70;99.90;;;;;;5048720;28;20088;-82
2021/12/14 13:24:27;;;;;;;24.13;12.88;;;8.70;99.90;;;;;;5048766;28;20053;-79
2021/12/14 13:27:01;;;;;;;21.95;10.00;;;8.70;99.90;;;;;;5048329;28;20061;-82
2021/12/14 13:29:48;;;;;;;27.55;15.15;;;8.60;99.90;;;;;;5048804;28;20518;-79
2021/12/14 13:32:37;;;;;;;29.20;15.15;;;8.70;99.90;;;;;;5032157;28;20065;-82
2021/12/14 13:35:06;;;;;;;29.27;13.18;;;8.70;99.90;;;;;;5048371;28;20500;-82
2021/12/14 13:37:40;;;;;;;28.60;14.57;;;8.60;99.90;;;;;;5048087;28;20041;-79
2021/12/14 13:40:23;;;;;;;32.45;16.40;;;8.60;99.90;;;;;;5015532;28;20479;-82
2021/12/14 13:43:11;;;;;;;30.10;14.10;;;8.60;99.90;;;;;;5031395;28;20484;-79
2021/12/14 13:45:44;;;;;;;23.40;12.02;;;8.60;99.90;;;;;;5047534;28;20128;-78
2021/12/14 13:48:12;;;;;;;27.50;12.88;;;8.70;99.90;;;;;;5028323;28;20045;-79